createdAt,value
2023-02-15T00:00:05.382Z,101474.41
2023-02-15T00:02:56.491Z,101480.25
2023-02-15T00:05:24.561Z,101474.81
2023-02-15T00:07:56.185Z,101462.13
2023-02-15T00:10:26.582Z,101497.94
2023-02-15T00:12:57.515Z,101473.03
2023-02-15T00:15:27.333Z,101457.44
2023-02-15T00:17:59.909Z,101498.94
2023-02-15T00:20:28.590Z,101480.56
2023-02-15T00:23:01.521Z,101489.81
2023-02-15T00:25:31.630Z,101494.84
2023-02-15T00:28:06.940Z,101496.31
2023-02-15T00:30:37.456Z,101498.41
2023-02-15T00:33:05.490Z,101470.66
2023-02-15T00:35:35.945Z,101474.69
2023-02-15T00:38:05.806Z,101485.94
2023-02-15T00:40:34.924Z,101485.59
2023-02-15T00:43:08.539Z,101482.16
2023-02-15T00:45:42.789Z,101480.78
2023-02-15T00:53:59.030Z,101467.06
2023-02-15T00:56:29.625Z,101463.78
2023-02-15T00:58:58.637Z,101447.09
2023-02-15T01:01:27.935Z,101468.13
2023-02-15T01:04:20.887Z,101469.81
2023-02-15T01:06:59.338Z,101464.25
2023-02-15T01:09:47.405Z,101470.66
2023-02-15T01:12:19.261Z,101479.63
2023-02-15T01:14:53.943Z,101467.28
2023-02-15T01:17:24.578Z,101467.63
2023-02-15T01:20:02.074Z,101441.00
2023-02-15T01:23:02.332Z,101457.25
2023-02-15T01:25:32.626Z,101464.25
2023-02-15T01:28:02.915Z,101455.75
2023-02-15T01:30:42.948Z,101461.81
2023-02-15T01:33:23.080Z,101430.13
2023-02-15T01:35:59.361Z,101432.63
2023-02-15T01:38:31.806Z,101463.84
2023-02-15T01:41:20.703Z,101427.75
2023-02-15T01:44:09.524Z,101446.56
2023-02-15T01:46:45.984Z,101453.66
2023-02-15T01:49:22.337Z,101429.53
2023-02-15T01:51:54.843Z,101456.22
2023-02-15T01:54:38.622Z,101436.06
2023-02-15T01:57:22.368Z,101457.81
2023-02-15T02:00:05.584Z,101454.38
2023-02-15T02:02:46.776Z,101459.41
2023-02-15T02:05:53.340Z,101456.78
2023-02-15T02:08:23.168Z,101443.59
2023-02-15T02:11:09.775Z,101440.41
2023-02-15T02:13:46.378Z,101457.91
2023-02-15T02:16:32.381Z,101449.25
2023-02-15T02:19:17.530Z,101452.31
2023-02-15T02:22:37.377Z,101406.69
2023-02-15T02:25:23.062Z,101453.44
2023-02-15T02:28:22.264Z,101458.38
2023-02-15T02:31:29.975Z,101447.38
2023-02-15T02:34:22.002Z,101447.16
2023-02-15T02:37:16.113Z,101460.81
2023-02-15T02:39:47.548Z,101444.72
2023-02-15T02:42:30.701Z,101457.84
2023-02-15T02:45:21.999Z,101433.06
2023-02-15T02:47:56.061Z,101445.56
2023-02-15T02:50:30.686Z,101451.66
2023-02-15T02:53:00.571Z,101445.00
2023-02-15T02:55:38.095Z,101448.63
2023-02-15T02:58:15.733Z,101427.97
2023-02-15T03:01:08.120Z,101451.63
2023-02-15T03:03:45.647Z,101454.63
2023-02-15T03:06:54.511Z,101440.53
2023-02-15T03:09:42.992Z,101447.97
2023-02-15T03:12:18.840Z,101447.38
2023-02-15T03:14:59.017Z,101452.34
2023-02-15T03:17:31.771Z,101442.09
2023-02-15T03:20:08.448Z,101451.44
2023-02-15T03:22:39.227Z,101445.50
2023-02-15T03:25:21.284Z,101454.88
2023-02-15T03:28:01.340Z,101450.44
2023-02-15T03:30:33.000Z,101437.84
2023-02-15T03:33:03.623Z,101428.81
2023-02-15T03:35:51.159Z,101451.72
2023-02-15T03:38:32.654Z,101452.38
2023-02-15T03:41:15.150Z,101442.66
2023-02-15T03:44:11.684Z,101440.44
2023-02-15T03:46:53.894Z,101456.25
2023-02-15T03:49:39.150Z,101433.41
2023-02-15T03:52:13.646Z,101451.56
2023-02-15T03:54:49.155Z,101450.72
2023-02-15T03:58:03.006Z,101413.38
2023-02-15T04:00:57.490Z,101444.09
2023-02-15T04:03:48.256Z,101441.28
2023-02-15T04:06:19.506Z,101422.34
2023-02-15T04:09:08.981Z,101405.91
2023-02-15T04:11:40.018Z,101422.56
2023-02-15T04:14:34.277Z,101421.06
2023-02-15T04:17:13.136Z,101439.84
2023-02-15T04:20:00.626Z,101455.41
2023-02-15T04:22:55.172Z,101435.56
2023-02-15T04:25:38.202Z,101452.22
2023-02-15T04:28:10.112Z,101439.84
2023-02-15T04:30:43.209Z,101450.41
2023-02-15T04:33:21.970Z,101444.09
2023-02-15T04:35:56.898Z,101458.50
2023-02-15T04:38:43.698Z,101464.91
2023-02-15T04:41:49.217Z,101434.69
2023-02-15T04:44:19.154Z,101460.97
2023-02-15T04:46:46.483Z,101463.84
2023-02-15T04:49:16.549Z,101462.84
2023-02-15T04:51:44.906Z,101463.06
2023-02-15T04:54:16.079Z,101462.44
2023-02-15T04:56:52.291Z,101457.41
2023-02-15T04:59:37.179Z,101458.16
2023-02-15T05:02:10.564Z,101460.09
2023-02-15T05:04:41.059Z,101462.19
2023-02-15T05:07:09.052Z,101455.78
2023-02-15T05:09:36.937Z,101440.75
2023-02-15T05:12:07.295Z,101459.53
2023-02-15T05:14:35.015Z,101474.00
2023-02-15T05:17:04.413Z,101468.13
2023-02-15T05:19:36.445Z,101475.25
2023-02-15T05:22:06.782Z,101476.97
2023-02-15T05:24:53.484Z,101452.84
2023-02-15T05:27:39.870Z,101478.25
2023-02-15T05:30:12.864Z,101447.69
2023-02-15T05:32:43.441Z,101465.50
2023-02-15T05:35:16.866Z,101475.25
2023-02-15T05:37:47.546Z,101468.63
2023-02-15T05:40:17.773Z,101461.03
2023-02-15T05:42:54.556Z,101466.56
2023-02-15T05:45:25.248Z,101494.72
2023-02-15T05:47:59.018Z,101473.84
2023-02-15T05:50:27.748Z,101502.72
2023-02-15T05:52:59.954Z,101490.53
2023-02-15T05:55:28.087Z,101481.50
2023-02-15T05:58:23.692Z,101482.44
2023-02-15T06:00:59.087Z,101499.91
2023-02-15T06:03:46.762Z,101491.78
2023-02-15T06:06:16.036Z,101505.28
2023-02-15T06:08:45.619Z,101497.81
2023-02-15T06:11:17.665Z,101498.47
2023-02-15T06:13:46.801Z,101477.97
2023-02-15T06:16:17.989Z,101494.19
2023-02-15T06:18:48.149Z,101497.84
2023-02-15T06:21:18.459Z,101492.97
2023-02-15T06:23:46.900Z,101488.06
2023-02-15T06:26:16.498Z,101497.88
2023-02-15T06:28:45.021Z,101497.69
2023-02-15T06:31:14.252Z,101496.53
2023-02-15T06:33:42.136Z,101497.22
2023-02-15T06:36:12.628Z,101510.19
2023-02-15T06:38:50.505Z,101497.19
2023-02-15T06:41:26.417Z,101473.91
2023-02-15T06:43:55.275Z,101480.31
2023-02-15T06:46:24.928Z,101500.44
2023-02-15T06:48:57.827Z,101496.94
2023-02-15T06:51:28.602Z,101511.72
2023-02-15T06:54:03.580Z,101512.00
2023-02-15T06:56:35.320Z,101512.81
2023-02-15T06:59:02.704Z,101500.25
2023-02-15T07:01:31.654Z,101517.34
2023-02-15T07:04:01.628Z,101512.97
2023-02-15T07:06:34.234Z,101490.63
2023-02-15T07:09:02.660Z,101495.47
2023-02-15T07:11:48.765Z,101510.63
2023-02-15T07:14:16.346Z,101511.81
2023-02-15T07:16:47.107Z,101518.13
2023-02-15T07:19:15.016Z,101508.78
2023-02-15T07:21:46.826Z,101508.94
2023-02-15T07:24:16.257Z,101511.81
2023-02-15T07:26:45.234Z,101523.50
2023-02-15T07:29:13.481Z,101521.53
2023-02-15T07:32:00.238Z,101510.94
2023-02-15T07:34:27.813Z,101526.47
2023-02-15T07:37:03.916Z,101514.81
2023-02-15T07:39:31.708Z,101522.19
2023-02-15T07:42:03.221Z,101506.63
2023-02-15T07:44:33.611Z,101500.84
2023-02-15T07:47:03.101Z,101484.41
2023-02-15T07:49:31.808Z,101518.53
2023-02-15T07:52:04.010Z,101509.25
2023-02-15T07:54:35.368Z,101507.06
2023-02-15T07:57:13.033Z,101519.44
2023-02-15T07:59:45.884Z,101512.47
2023-02-15T08:02:14.201Z,101512.25
2023-02-15T08:04:41.947Z,101516.00
2023-02-15T08:07:09.805Z,101516.94
2023-02-15T08:09:37.286Z,101492.59
2023-02-15T08:12:07.663Z,101503.91
2023-02-15T08:14:36.080Z,101513.97
2023-02-15T08:17:09.220Z,101507.78
2023-02-15T08:19:37.073Z,101508.91
2023-02-15T08:22:16.111Z,101508.81
2023-02-15T08:24:55.424Z,101488.81
2023-02-15T08:28:04.464Z,101503.56
2023-02-15T08:30:54.841Z,101506.72
2023-02-15T08:33:38.319Z,101507.13
2023-02-15T08:36:23.922Z,101511.63
2023-02-15T08:43:20.606Z,101516.69
2023-02-15T08:45:49.210Z,101502.38
2023-02-15T08:48:20.298Z,101486.97
2023-02-15T08:50:51.916Z,101512.34
2023-02-15T08:53:22.832Z,101507.88
2023-02-15T08:56:01.073Z,101513.59
2023-02-15T08:59:09.291Z,101523.16
2023-02-15T09:02:11.737Z,101509.13
2023-02-15T09:04:44.152Z,101507.28
2023-02-15T09:07:43.488Z,101515.25
2023-02-15T09:11:01.137Z,101516.09
2023-02-15T09:13:56.191Z,101526.84
2023-02-15T09:16:39.509Z,101522.34
2023-02-15T09:51:10.811Z,101502.97
2023-02-15T10:08:40.101Z,101484.03
2023-02-15T10:12:23.798Z,101482.56
2023-02-15T10:16:44.946Z,101472.16
2023-02-15T10:20:51.272Z,101467.19
2023-02-15T10:46:42.238Z,101437.13
2023-02-15T10:50:29.611Z,101433.06
2023-02-15T10:54:34.213Z,101428.38
2023-02-15T10:57:48.295Z,101421.59
2023-02-15T11:00:48.901Z,101421.25
2023-02-15T11:03:34.402Z,101405.34
2023-02-15T11:06:11.728Z,101409.06
2023-02-15T11:08:51.906Z,101419.44
2023-02-15T11:11:41.953Z,101418.41
2023-02-15T11:16:11.510Z,101411.78
2023-02-15T11:19:44.302Z,101389.56
2023-02-15T11:23:15.953Z,101407.63
2023-02-15T11:26:23.257Z,101390.69
2023-02-15T11:29:50.571Z,101396.53
2023-02-15T11:32:50.649Z,101384.25
2023-02-15T11:35:54.732Z,101388.63
2023-02-15T11:38:44.599Z,101383.72
2023-02-15T11:41:36.734Z,101382.75
2023-02-15T11:44:25.223Z,101371.06
2023-02-15T11:47:15.888Z,101372.72
2023-02-15T11:49:49.287Z,101346.09
2023-02-15T11:52:20.396Z,101353.50
2023-02-15T11:54:56.492Z,101344.38
2023-02-15T11:58:05.502Z,101340.97
2023-02-15T12:07:34.789Z,101349.91
2023-02-15T12:10:45.139Z,101351.13
2023-02-15T12:13:26.629Z,101345.75
2023-02-15T12:16:02.702Z,101339.97
2023-02-15T12:18:50.120Z,101342.59
2023-02-15T12:24:51.835Z,101336.22
2023-02-15T12:28:10.010Z,101321.50
2023-02-15T12:34:50.014Z,101320.44
2023-02-15T12:37:50.272Z,101292.84
2023-02-15T12:40:33.985Z,101304.25
2023-02-15T12:43:28.186Z,101306.06
2023-02-15T12:46:24.178Z,101308.91
2023-02-15T12:49:35.464Z,101303.22
2023-02-15T12:53:31.428Z,101296.41
2023-02-15T12:57:05.503Z,101283.66
2023-02-15T13:00:27.226Z,101296.78
2023-02-15T13:03:02.914Z,101282.44
2023-02-15T13:16:45.661Z,101283.84
2023-02-15T13:20:07.359Z,101285.00
2023-02-15T13:23:36.505Z,101278.69
2023-02-15T13:26:35.984Z,101273.16
2023-02-15T13:30:16.050Z,101276.91
2023-02-15T13:32:59.864Z,101276.84
2023-02-15T13:35:49.741Z,101276.78
2023-02-15T13:38:46.972Z,101270.78
2023-02-15T13:42:45.035Z,101273.81
2023-02-15T13:46:00.333Z,101273.94
2023-02-15T13:50:19.007Z,101275.22
2023-02-15T13:53:16.331Z,101267.44
2023-02-15T13:56:42.758Z,101278.72
2023-02-15T13:59:48.153Z,101267.88
2023-02-15T14:03:45.914Z,101273.75
2023-02-15T14:06:59.516Z,101266.63
2023-02-15T14:10:23.799Z,101267.94
2023-02-15T14:13:44.896Z,101251.88
2023-02-15T14:17:55.366Z,101253.72
2023-02-15T14:21:15.541Z,101257.09
2023-02-15T14:28:10.387Z,101219.97
2023-02-15T14:30:46.249Z,101252.00
2023-02-15T14:33:38.325Z,101259.44
2023-02-15T14:43:32.723Z,101235.09
2023-02-15T14:46:31.129Z,101228.47
2023-02-15T14:49:17.532Z,101253.00
2023-02-15T14:51:52.225Z,101239.41
2023-02-15T14:55:02.191Z,101262.44
2023-02-15T14:58:01.245Z,101264.53
2023-02-15T15:00:51.800Z,101252.34
2023-02-15T15:03:27.140Z,101214.81
2023-02-15T15:06:00.434Z,101227.50
2023-02-15T15:08:41.441Z,101240.16
2023-02-15T15:11:43.413Z,101253.88
2023-02-15T15:14:34.932Z,101255.41
2023-02-15T15:17:05.899Z,101255.75
2023-02-15T15:19:52.191Z,101259.13
2023-02-15T15:22:27.918Z,101246.28
2023-02-15T15:24:58.049Z,101245.59
2023-02-15T15:27:51.982Z,101222.91
2023-02-15T15:30:20.258Z,101227.31
2023-02-15T15:32:59.130Z,101249.94
2023-02-15T15:35:56.822Z,101238.88
2023-02-15T15:38:52.650Z,101243.88
2023-02-15T15:45:46.761Z,101224.06
2023-02-15T15:48:39.591Z,101247.22
2023-02-15T15:51:12.888Z,101238.00
2023-02-15T15:53:49.616Z,101237.25
2023-02-15T15:56:21.900Z,101234.41
2023-02-15T15:58:57.490Z,101247.00
2023-02-15T16:01:31.476Z,101242.91
2023-02-15T16:04:01.934Z,101224.31
2023-02-15T16:06:38.958Z,101237.53
2023-02-15T16:09:30.369Z,101242.22
2023-02-15T16:12:02.377Z,101248.66
2023-02-15T16:14:34.844Z,101230.44
2023-02-15T16:17:07.198Z,101213.06
2023-02-15T16:19:46.994Z,101243.78
2023-02-15T16:22:28.335Z,101217.50
2023-02-15T16:25:21.043Z,101204.78
2023-02-15T16:27:58.015Z,101223.31
2023-02-15T16:30:32.671Z,101255.00
2023-02-15T16:33:13.297Z,101248.47
2023-02-15T16:36:04.568Z,101241.41
2023-02-15T16:38:43.431Z,101250.31
2023-02-15T16:41:22.173Z,101236.00
2023-02-15T16:44:48.163Z,101251.72
2023-02-15T16:50:41.320Z,101247.72
2023-02-15T16:53:29.685Z,101247.81
2023-02-15T16:56:13.284Z,101247.78
2023-02-15T16:59:01.489Z,101226.50
2023-02-15T17:01:58.784Z,101253.59
2023-02-15T17:04:41.839Z,101239.41
2023-02-15T17:08:15.710Z,101252.72
2023-02-15T17:11:39.180Z,101255.66
2023-02-15T17:14:26.634Z,101253.31
2023-02-15T17:18:06.472Z,101261.28
2023-02-15T17:20:50.068Z,101255.19
2023-02-15T17:23:29.569Z,101257.69
2023-02-15T17:26:59.040Z,101231.53
2023-02-15T17:29:42.314Z,101248.50
2023-02-15T17:32:50.110Z,101247.63
2023-02-15T17:42:58.953Z,101251.53
2023-02-15T17:46:14.147Z,101250.09
2023-02-15T17:48:53.519Z,101252.31
2023-02-15T17:51:45.441Z,101240.59
2023-02-15T17:54:48.078Z,101236.63
2023-02-15T17:58:34.432Z,101242.94
2023-02-15T18:01:53.194Z,101235.50
2023-02-15T18:04:56.620Z,101238.28
2023-02-15T18:07:59.712Z,101228.59
2023-02-15T18:11:12.313Z,101224.28
2023-02-15T18:14:11.167Z,101223.94
2023-02-15T18:20:54.061Z,101232.66
2023-02-15T18:23:47.547Z,101234.25
2023-02-15T18:26:34.778Z,101230.69
2023-02-15T18:29:11.848Z,101226.56
2023-02-15T18:31:40.861Z,101235.34
2023-02-15T18:34:24.190Z,101203.00
2023-02-15T18:36:54.122Z,101232.22
2023-02-15T18:39:49.426Z,101231.94
2023-02-15T18:42:38.542Z,101230.50
2023-02-15T18:45:33.368Z,101227.59
2023-02-15T18:48:03.300Z,101234.41
2023-02-15T18:50:38.931Z,101228.66
2023-02-15T18:53:20.297Z,101229.88
2023-02-15T18:55:49.863Z,101224.75
2023-02-15T18:58:25.907Z,101228.09
2023-02-15T19:01:01.750Z,101203.88
2023-02-15T19:03:32.236Z,101224.75
2023-02-15T19:06:16.501Z,101231.94
2023-02-15T19:08:50.208Z,101234.38
2023-02-15T19:11:26.381Z,101229.63
2023-02-15T19:13:56.055Z,101242.91
2023-02-15T19:16:35.032Z,101212.41
2023-02-15T19:19:07.231Z,101230.38
2023-02-15T19:21:39.720Z,101237.69
2023-02-15T19:24:14.249Z,101234.16
2023-02-15T19:26:45.859Z,101233.69
2023-02-15T19:29:19.384Z,101234.16
2023-02-15T19:31:50.621Z,101228.81
2023-02-15T19:34:47.182Z,101223.09
2023-02-15T19:37:33.391Z,101223.00
2023-02-15T19:40:02.045Z,101220.06
2023-02-15T19:42:58.926Z,101211.78
2023-02-15T19:45:36.323Z,101202.31
2023-02-15T19:48:06.795Z,101209.25
2023-02-15T19:50:34.963Z,101222.38
2023-02-15T19:53:04.911Z,101197.31
2023-02-15T19:55:34.636Z,101209.25
2023-02-15T19:58:12.485Z,101220.78
2023-02-15T20:00:50.571Z,101208.88
2023-02-15T20:03:25.373Z,101217.28
2023-02-15T20:06:03.783Z,101206.44
2023-02-15T20:11:29.129Z,101206.69
2023-02-15T20:14:15.464Z,101178.59
2023-02-15T20:16:48.329Z,101192.34
2023-02-15T20:19:19.627Z,101203.56
2023-02-15T20:21:55.123Z,101208.38
2023-02-15T20:24:36.742Z,101204.28
2023-02-15T20:27:18.396Z,101190.88
2023-02-15T20:29:48.329Z,101201.13
2023-02-15T20:32:18.484Z,101202.47
2023-02-15T20:34:48.478Z,101198.78
2023-02-15T20:37:35.057Z,101203.28
2023-02-15T20:40:35.981Z,101204.88
2023-02-15T20:43:16.816Z,101192.84
2023-02-15T20:45:58.113Z,101208.13
2023-02-15T20:48:40.133Z,101187.50
2023-02-15T20:51:21.936Z,101201.84
2023-02-15T20:54:41.322Z,101199.03
2023-02-15T20:57:17.020Z,101178.13
2023-02-15T20:59:47.098Z,101192.47
2023-02-15T21:02:25.514Z,101199.41
2023-02-15T21:04:59.380Z,101190.41
2023-02-15T21:07:37.139Z,101179.84
2023-02-15T21:10:16.278Z,101176.81
2023-02-15T21:12:49.235Z,101167.06
2023-02-15T21:15:26.559Z,101163.06
2023-02-15T21:17:58.495Z,101168.19
2023-02-15T21:20:29.938Z,101160.50
2023-02-15T21:23:03.615Z,101157.88
2023-02-15T21:25:40.177Z,101161.25
2023-02-15T21:28:24.933Z,101156.66
2023-02-15T21:30:59.197Z,101169.03
2023-02-15T21:33:59.299Z,101161.00
2023-02-15T21:36:44.761Z,101154.44
2023-02-15T21:39:33.287Z,101152.75
2023-02-15T21:42:22.659Z,101149.69
2023-02-15T21:45:17.827Z,101168.66
2023-02-15T21:47:58.249Z,101149.84
2023-02-15T21:54:20.408Z,101157.22
2023-02-15T21:56:51.587Z,101157.09
2023-02-15T21:59:20.702Z,101164.91
2023-02-15T22:01:52.217Z,101150.44
2023-02-15T22:04:26.193Z,101151.53
2023-02-15T22:06:57.027Z,101151.53
2023-02-15T22:09:27.483Z,101164.16
2023-02-15T22:11:58.819Z,101160.13
2023-02-15T22:14:55.379Z,101163.91
2023-02-15T22:17:45.772Z,101152.47
2023-02-15T22:20:55.800Z,101147.25
2023-02-15T22:23:29.354Z,101157.69
2023-02-15T22:26:38.425Z,101150.44
2023-02-15T22:30:00.147Z,101149.81
2023-02-15T22:32:49.280Z,101144.84
2023-02-15T22:35:39.359Z,101137.16
2023-02-15T22:38:22.277Z,101149.06
2023-02-15T22:41:11.072Z,101145.22
2023-02-15T22:43:43.176Z,101157.69
2023-02-15T22:46:23.856Z,101151.72
2023-02-15T22:48:56.810Z,101144.47
2023-02-15T22:51:32.381Z,101134.00
2023-02-15T22:54:04.856Z,101137.41
2023-02-15T22:56:52.219Z,101128.41
2023-02-15T22:59:27.365Z,101150.19
2023-02-15T23:02:01.078Z,101149.81
2023-02-15T23:04:34.554Z,101142.50
2023-02-15T23:07:21.031Z,101139.34
2023-02-15T23:10:00.479Z,101126.03
2023-02-15T23:13:28.551Z,101119.34
2023-02-15T23:16:09.554Z,101118.63
2023-02-15T23:18:45.282Z,101111.56
2023-02-15T23:21:26.553Z,101120.19
2023-02-15T23:24:10.383Z,101134.78
2023-02-15T23:31:46.051Z,101127.34
2023-02-15T23:34:23.302Z,101124.19
2023-02-15T23:36:50.991Z,101128.44
2023-02-15T23:42:34.569Z,101138.63
2023-02-15T23:45:21.295Z,101136.31
2023-02-15T23:48:12.725Z,101116.50
2023-02-15T23:50:47.028Z,101120.38
2023-02-15T23:53:21.995Z,101123.94
2023-02-15T23:55:57.672Z,101122.56
2023-02-15T23:58:45.832Z,101126.59
